sensor_id;sensor_type;location;lat;lon;timestamp;pressure;altitude;pressure_sealevel;temperature;humidity
17311;BME280;8773;43.300;0.394;2022-12-26T00:01:59;100056.22;;;8.78;64.76
17311;BME280;8773;43.300;0.394;2022-12-26T00:04:30;100042.59;;;8.71;64.45
17311;BME280;8773;43.300;0.394;2022-12-26T00:07:23;100041.91;;;8.69;64.25
17311;BME280;8773;43.300;0.394;2022-12-26T00:09:56;100058.44;;;8.92;64.17
17311;BME280;8773;43.300;0.394;2022-12-26T00:12:24;100043.13;;;8.94;63.41
17311;BME280;8773;43.300;0.394;2022-12-26T00:14:52;100040.34;;;8.86;64.15
17311;BME280;8773;43.300;0.394;2022-12-26T00:17:21;100047.22;;;8.79;64.22
17311;BME280;8773;43.300;0.394;2022-12-26T00:19:49;100044.97;;;8.65;63.65
17311;BME280;8773;43.300;0.394;2022-12-26T00:22:17;100050.19;;;8.76;63.45
17311;BME280;8773;43.300;0.394;2022-12-26T00:24:46;100045.25;;;8.62;64.22
17311;BME280;8773;43.300;0.394;2022-12-26T00:27:16;100056.25;;;8.59;64.15
17311;BME280;8773;43.300;0.394;2022-12-26T00:29:44;100054.16;;;8.52;64.23
17311;BME280;8773;43.300;0.394;2022-12-26T00:32:14;100050.66;;;8.04;65.71
17311;BME280;8773;43.300;0.394;2022-12-26T00:34:42;100048.69;;;8.25;65.20
17311;BME280;8773;43.300;0.394;2022-12-26T00:37:18;100041.94;;;8.31;65.14
17311;BME280;8773;43.300;0.394;2022-12-26T00:39:52;100043.06;;;8.47;64.15
17311;BME280;8773;43.300;0.394;2022-12-26T00:42:21;100051.34;;;8.44;64.01
17311;BME280;8773;43.300;0.394;2022-12-26T00:44:50;100049.22;;;8.58;63.98
17311;BME280;8773;43.300;0.394;2022-12-26T00:47:18;100046.41;;;8.69;63.27
17311;BME280;8773;43.300;0.394;2022-12-26T00:49:48;100026.59;;;8.62;62.50
17311;BME280;8773;43.300;0.394;2022-12-26T00:52:41;100024.06;;;8.60;62.69
17311;BME280;8773;43.300;0.394;2022-12-26T00:55:15;100036.16;;;8.74;62.73
17311;BME280;8773;43.300;0.394;2022-12-26T00:57:45;100038.66;;;8.85;62.12
17311;BME280;8773;43.300;0.394;2022-12-26T01:00:15;100053.78;;;8.94;62.07
17311;BME280;8773;43.300;0.394;2022-12-26T01:02:46;100062.59;;;9.04;61.22
17311;BME280;8773;43.300;0.394;2022-12-26T01:05:14;100061.66;;;8.96;62.16
17311;BME280;8773;43.300;0.394;2022-12-26T01:07:42;100069.69;;;8.86;62.07
17311;BME280;8773;43.300;0.394;2022-12-26T01:10:30;100070.06;;;9.01;62.01
17311;BME280;8773;43.300;0.394;2022-12-26T01:13:00;100083.06;;;9.13;61.38
17311;BME280;8773;43.300;0.394;2022-12-26T01:15:28;100073.31;;;8.95;61.58
17311;BME280;8773;43.300;0.394;2022-12-26T01:17:57;100071.06;;;9.00;61.93
17311;BME280;8773;43.300;0.394;2022-12-26T01:20:26;100075.09;;;9.04;62.18
17311;BME280;8773;43.300;0.394;2022-12-26T01:22:55;100069.72;;;8.57;62.92
17311;BME280;8773;43.300;0.394;2022-12-26T01:25:23;100070.66;;;8.66;63.19
17311;BME280;8773;43.300;0.394;2022-12-26T01:27:51;100076.44;;;8.80;62.35
17311;BME280;8773;43.300;0.394;2022-12-26T01:30:21;100073.03;;;8.88;61.82
17311;BME280;8773;43.300;0.394;2022-12-26T01:32:49;100068.03;;;8.46;63.22
17311;BME280;8773;43.300;0.394;2022-12-26T01:35:17;100030.16;;;8.33;62.90
17311;BME280;8773;43.300;0.394;2022-12-26T01:37:45;100073.94;;;8.60;62.58
17311;BME280;8773;43.300;0.394;2022-12-26T01:40:14;100063.53;;;8.56;62.09
17311;BME280;8773;43.300;0.394;2022-12-26T01:42:42;100067.75;;;8.30;62.59
17311;BME280;8773;43.300;0.394;2022-12-26T01:45:22;100081.78;;;8.51;62.33
17311;BME280;8773;43.300;0.394;2022-12-26T01:47:59;100076.03;;;8.56;61.25
17311;BME280;8773;43.300;0.394;2022-12-26T01:50:34;100097.50;;;8.74;61.19
17311;BME280;8773;43.300;0.394;2022-12-26T01:53:08;100081.78;;;8.71;60.21
17311;BME280;8773;43.300;0.394;2022-12-26T01:55:45;100097.91;;;8.88;60.19
17311;BME280;8773;43.300;0.394;2022-12-26T01:58:18;100096.19;;;8.97;60.43
17311;BME280;8773;43.300;0.394;2022-12-26T02:00:50;100105.88;;;8.98;59.87
17311;BME280;8773;43.300;0.394;2022-12-26T02:03:19;100100.00;;;8.95;59.62
17311;BME280;8773;43.300;0.394;2022-12-26T02:06:05;100101.13;;;8.92;59.89
17311;BME280;8773;43.300;0.394;2022-12-26T02:08:35;100092.41;;;8.90;59.25
17311;BME280;8773;43.300;0.394;2022-12-26T02:11:12;100094.25;;;8.61;60.11
17311;BME280;8773;43.300;0.394;2022-12-26T02:13:42;100099.06;;;8.57;61.27
17311;BME280;8773;43.300;0.394;2022-12-26T02:16:14;100093.72;;;8.57;61.10
17311;BME280;8773;43.300;0.394;2022-12-26T02:18:43;100104.91;;;8.61;60.98
17311;BME280;8773;43.300;0.394;2022-12-26T02:21:31;100108.97;;;8.65;60.84
17311;BME280;8773;43.300;0.394;2022-12-26T02:27:21;100086.56;;;8.09;62.04
17311;BME280;8773;43.300;0.394;2022-12-26T02:30:05;100089.78;;;8.32;62.10
17311;BME280;8773;43.300;0.394;2022-12-26T02:32:55;100086.00;;;8.44;61.36
17311;BME280;8773;43.300;0.394;2022-12-26T02:35:43;100109.28;;;8.33;61.63
17311;BME280;8773;43.300;0.394;2022-12-26T02:38:26;100098.91;;;8.39;61.33
17311;BME280;8773;43.300;0.394;2022-12-26T02:41:05;100094.13;;;8.43;61.23
17311;BME280;8773;43.300;0.394;2022-12-26T02:43:40;100095.41;;;8.39;61.34
17311;BME280;8773;43.300;0.394;2022-12-26T02:46:17;100111.69;;;8.55;61.03
17311;BME280;8773;43.300;0.394;2022-12-26T02:49:14;100071.53;;;8.47;60.76
17311;BME280;8773;43.300;0.394;2022-12-26T02:51:54;100114.34;;;8.07;61.78
17311;BME280;8773;43.300;0.394;2022-12-26T02:54:57;100098.47;;;7.96;62.37
17311;BME280;8773;43.300;0.394;2022-12-26T02:57:50;100105.78;;;8.13;61.87
17311;BME280;8773;43.300;0.394;2022-12-26T03:00:42;100092.59;;;8.40;61.15
17311;BME280;8773;43.300;0.394;2022-12-26T03:03:32;100112.38;;;8.67;60.51
17311;BME280;8773;43.300;0.394;2022-12-26T03:06:23;100100.88;;;8.56;60.04
17311;BME280;8773;43.300;0.394;2022-12-26T03:09:11;100065.50;;;8.54;59.86
17311;BME280;8773;43.300;0.394;2022-12-26T03:12:02;100104.50;;;8.84;59.39
17311;BME280;8773;43.300;0.394;2022-12-26T03:14:53;100088.91;;;8.80;59.06
17311;BME280;8773;43.300;0.394;2022-12-26T03:17:27;100093.44;;;8.70;59.53
17311;BME280;8773;43.300;0.394;2022-12-26T03:20:01;100107.31;;;8.83;59.59
17311;BME280;8773;43.300;0.394;2022-12-26T03:22:40;100094.25;;;8.61;59.31
17311;BME280;8773;43.300;0.394;2022-12-26T03:25:13;100111.50;;;8.66;59.92
17311;BME280;8773;43.300;0.394;2022-12-26T03:28:00;100109.16;;;8.53;59.37
17311;BME280;8773;43.300;0.394;2022-12-26T03:30:29;100099.19;;;8.55;59.08
17311;BME280;8773;43.300;0.394;2022-12-26T03:33:35;100090.75;;;8.70;59.22
17311;BME280;8773;43.300;0.394;2022-12-26T03:36:30;100085.28;;;8.71;58.49
17311;BME280;8773;43.300;0.394;2022-12-26T03:39:09;100079.50;;;8.95;58.45
17311;BME280;8773;43.300;0.394;2022-12-26T03:41:48;100098.38;;;9.11;57.41
17311;BME280;8773;43.300;0.394;2022-12-26T03:44:46;100084.81;;;8.95;57.97
17311;BME280;8773;43.300;0.394;2022-12-26T03:47:36;100101.03;;;9.11;57.24
17311;BME280;8773;43.300;0.394;2022-12-26T03:50:33;100126.91;;;9.11;57.62
17311;BME280;8773;43.300;0.394;2022-12-26T03:53:24;100128.56;;;9.21;58.29
17311;BME280;8773;43.300;0.394;2022-12-26T03:56:18;100112.28;;;9.15;57.47
17311;BME280;8773;43.300;0.394;2022-12-26T03:59:09;100128.16;;;9.16;57.91
17311;BME280;8773;43.300;0.394;2022-12-26T04:02:00;100128.63;;;9.02;58.69
17311;BME280;8773;43.300;0.394;2022-12-26T04:04:48;100126.25;;;8.99;58.08
17311;BME280;8773;43.300;0.394;2022-12-26T04:07:48;100130.34;;;8.45;58.81
17311;BME280;8773;43.300;0.394;2022-12-26T04:10:48;100127.50;;;8.18;60.31
17311;BME280;8773;43.300;0.394;2022-12-26T04:13:49;100141.84;;;8.36;60.04
17311;BME280;8773;43.300;0.394;2022-12-26T04:16:37;100131.19;;;8.46;59.74
17311;BME280;8773;43.300;0.394;2022-12-26T04:22:24;100138.91;;;8.59;59.03
17311;BME280;8773;43.300;0.394;2022-12-26T04:25:15;100141.25;;;8.62;59.10
17311;BME280;8773;43.300;0.394;2022-12-26T04:28:20;100114.06;;;8.48;59.12
17311;BME280;8773;43.300;0.394;2022-12-26T04:31:12;100139.47;;;8.72;59.05
17311;BME280;8773;43.300;0.394;2022-12-26T04:34:01;100120.63;;;8.64;58.80
17311;BME280;8773;43.300;0.394;2022-12-26T04:36:54;100122.59;;;8.62;58.55
17311;BME280;8773;43.300;0.394;2022-12-26T04:39:42;100133.00;;;8.74;58.66
17311;BME280;8773;43.300;0.394;2022-12-26T04:42:29;100141.00;;;8.74;59.13
17311;BME280;8773;43.300;0.394;2022-12-26T04:45:16;100129.34;;;8.66;59.00
17311;BME280;8773;43.300;0.394;2022-12-26T04:47:48;100146.31;;;8.65;59.12
17311;BME280;8773;43.300;0.394;2022-12-26T04:50:30;100144.38;;;8.67;58.92
17311;BME280;8773;43.300;0.394;2022-12-26T04:53:13;100155.75;;;8.59;59.59
17311;BME280;8773;43.300;0.394;2022-12-26T04:55:41;100154.63;;;8.42;58.85
17311;BME280;8773;43.300;0.394;2022-12-26T04:58:11;100160.94;;;8.41;59.16
17311;BME280;8773;43.300;0.394;2022-12-26T05:00:39;100161.63;;;8.43;59.12
17311;BME280;8773;43.300;0.394;2022-12-26T05:03:09;100171.59;;;8.41;59.80
17311;BME280;8773;43.300;0.394;2022-12-26T05:05:57;100173.28;;;8.42;60.23
17311;BME280;8773;43.300;0.394;2022-12-26T05:08:45;100160.09;;;8.41;59.62
17311;BME280;8773;43.300;0.394;2022-12-26T05:11:32;100176.59;;;8.25;59.03
17311;BME280;8773;43.300;0.394;2022-12-26T05:14:01;100177.22;;;8.58;59.11
17311;BME280;8773;43.300;0.394;2022-12-26T05:16:29;100168.53;;;8.75;58.07
17311;BME280;8773;43.300;0.394;2022-12-26T05:19:18;100187.19;;;8.94;57.74
17311;BME280;8773;43.300;0.394;2022-12-26T05:22:04;100182.56;;;8.96;57.30
17311;BME280;8773;43.300;0.394;2022-12-26T05:24:52;100187.03;;;9.05;57.78
17311;BME280;8773;43.300;0.394;2022-12-26T05:27:40;100210.19;;;9.14;57.71
17311;BME280;8773;43.300;0.394;2022-12-26T05:30:27;100224.00;;;9.00;57.87
17311;BME280;8773;43.300;0.394;2022-12-26T05:32:55;100214.69;;;8.66;58.72
17311;BME280;8773;43.300;0.394;2022-12-26T05:35:43;100233.81;;;8.71;58.51
17311;BME280;8773;43.300;0.394;2022-12-26T05:38:11;100230.59;;;8.77;58.71
17311;BME280;8773;43.300;0.394;2022-12-26T05:40:48;100232.69;;;8.83;58.54
17311;BME280;8773;43.300;0.394;2022-12-26T05:43:16;100219.91;;;8.86;58.17
17311;BME280;8773;43.300;0.394;2022-12-26T05:45:44;100248.56;;;8.94;58.17
17311;BME280;8773;43.300;0.394;2022-12-26T05:48:12;100235.06;;;8.67;58.96
17311;BME280;8773;43.300;0.394;2022-12-26T05:50:40;100226.75;;;8.50;59.34
17311;BME280;8773;43.300;0.394;2022-12-26T05:53:11;100230.06;;;8.14;60.71
17311;BME280;8773;43.300;0.394;2022-12-26T05:55:39;100258.75;;;8.01;61.25
17311;BME280;8773;43.300;0.394;2022-12-26T05:58:08;100263.09;;;8.02;61.40
17311;BME280;8773;43.300;0.394;2022-12-26T06:00:37;100268.13;;;7.65;62.30
17311;BME280;8773;43.300;0.394;2022-12-26T06:03:05;100273.84;;;7.90;62.10
17311;BME280;8773;43.300;0.394;2022-12-26T06:05:33;100274.72;;;8.01;61.74
17311;BME280;8773;43.300;0.394;2022-12-26T06:08:01;100282.00;;;7.99;61.38
17311;BME280;8773;43.300;0.394;2022-12-26T06:10:31;100268.13;;;7.65;62.87
17311;BME280;8773;43.300;0.394;2022-12-26T06:12:59;100279.09;;;7.71;62.36
17311;BME280;8773;43.300;0.394;2022-12-26T06:15:27;100299.94;;;7.97;61.83
17311;BME280;8773;43.300;0.394;2022-12-26T06:17:56;100292.00;;;8.06;61.28
17311;BME280;8773;43.300;0.394;2022-12-26T06:20:24;100290.78;;;7.59;62.73
17311;BME280;8773;43.300;0.394;2022-12-26T06:22:52;100303.59;;;7.75;62.24
17311;BME280;8773;43.300;0.394;2022-12-26T06:25:20;100299.41;;;7.31;64.13
17311;BME280;8773;43.300;0.394;2022-12-26T06:27:50;100308.97;;;7.54;63.08
17311;BME280;8773;43.300;0.394;2022-12-26T06:30:18;100320.88;;;7.80;62.35
17311;BME280;8773;43.300;0.394;2022-12-26T06:32:46;100324.41;;;7.81;62.41
17311;BME280;8773;43.300;0.394;2022-12-26T06:35:14;100329.13;;;7.36;63.53
17311;BME280;8773;43.300;0.394;2022-12-26T06:37:42;100340.13;;;7.63;63.11
17311;BME280;8773;43.300;0.394;2022-12-26T06:40:11;100343.38;;;7.87;62.34
17311;BME280;8773;43.300;0.394;2022-12-26T06:42:39;100329.84;;;7.79;62.29
17311;BME280;8773;43.300;0.394;2022-12-26T06:45:16;100352.19;;;7.46;62.89
17311;BME280;8773;43.300;0.394;2022-12-26T06:47:44;100362.09;;;7.55;63.16
17311;BME280;8773;43.300;0.394;2022-12-26T06:50:13;100369.28;;;7.85;62.25
17311;BME280;8773;43.300;0.394;2022-12-26T06:52:41;100373.78;;;7.64;62.53
17311;BME280;8773;43.300;0.394;2022-12-26T06:55:09;100381.81;;;7.53;63.17
17311;BME280;8773;43.300;0.394;2022-12-26T06:57:37;100373.19;;;7.81;62.91
17311;BME280;8773;43.300;0.394;2022-12-26T07:00:06;100374.28;;;8.00;62.48
17311;BME280;8773;43.300;0.394;2022-12-26T07:02:37;100367.78;;;7.93;62.26
17311;BME280;8773;43.300;0.394;2022-12-26T07:05:06;100363.50;;;8.01;61.90
17311;BME280;8773;43.300;0.394;2022-12-26T07:07:34;100380.13;;;8.14;61.95
17311;BME280;8773;43.300;0.394;2022-12-26T07:10:02;100382.72;;;7.84;62.59
17311;BME280;8773;43.300;0.394;2022-12-26T07:12:33;100377.19;;;7.76;62.77
17311;BME280;8773;43.300;0.394;2022-12-26T07:15:01;100389.28;;;8.01;62.35
17311;BME280;8773;43.300;0.394;2022-12-26T07:17:29;100386.97;;;8.07;62.33
17311;BME280;8773;43.300;0.394;2022-12-26T07:19:59;100385.78;;;7.79;62.32
17311;BME280;8773;43.300;0.394;2022-12-26T07:22:27;100397.16;;;7.81;62.70
17311;BME280;8773;43.300;0.394;2022-12-26T07:24:55;100401.38;;;7.63;63.03
17311;BME280;8773;43.300;0.394;2022-12-26T07:27:24;100408.91;;;7.58;63.40
17311;BME280;8773;43.300;0.394;2022-12-26T07:29:52;100411.81;;;7.55;63.48
17311;BME280;8773;43.300;0.394;2022-12-26T07:32:21;100399.31;;;7.67;62.91
17311;BME280;8773;43.300;0.394;2022-12-26T07:34:49;100423.34;;;7.97;62.46
17311;BME280;8773;43.300;0.394;2022-12-26T07:37:18;100405.81;;;8.15;61.92
17311;BME280;8773;43.300;0.394;2022-12-26T07:39:46;100419.09;;;8.36;61.33
17311;BME280;8773;43.300;0.394;2022-12-26T07:42:22;100430.66;;;8.46;61.97
17311;BME280;8773;43.300;0.394;2022-12-26T07:44:50;100438.25;;;8.61;60.67
17311;BME280;8773;43.300;0.394;2022-12-26T07:47:19;100439.06;;;8.72;60.24
17311;BME280;8773;43.300;0.394;2022-12-26T07:49:47;100447.50;;;8.77;59.87
17311;BME280;8773;43.300;0.394;2022-12-26T07:52:15;100437.97;;;8.84;59.73
17311;BME280;8773;43.300;0.394;2022-12-26T07:54:45;100425.38;;;8.66;59.48
17311;BME280;8773;43.300;0.394;2022-12-26T07:57:13;100461.50;;;8.70;59.64
17311;BME280;8773;43.300;0.394;2022-12-26T08:00:03;100464.47;;;8.76;59.26
17311;BME280;8773;43.300;0.394;2022-12-26T08:02:31;100468.00;;;8.77;59.22
17311;BME280;8773;43.300;0.394;2022-12-26T08:05:00;100478.25;;;8.51;59.85
17311;BME280;8773;43.300;0.394;2022-12-26T08:07:28;100490.22;;;8.56;60.17
17311;BME280;8773;43.300;0.394;2022-12-26T08:09:57;100486.50;;;8.48;60.65
17311;BME280;8773;43.300;0.394;2022-12-26T08:12:26;100497.34;;;8.77;59.99
17311;BME280;8773;43.300;0.394;2022-12-26T08:14:54;100507.03;;;8.78;60.46
17311;BME280;8773;43.300;0.394;2022-12-26T08:17:22;100482.72;;;8.71;60.55
17311;BME280;8773;43.300;0.394;2022-12-26T08:19:51;100486.59;;;8.88;59.70
17311;BME280;8773;43.300;0.394;2022-12-26T08:22:19;100517.41;;;9.02;59.63
17311;BME280;8773;43.300;0.394;2022-12-26T08:24:47;100517.75;;;9.28;59.02
17311;BME280;8773;43.300;0.394;2022-12-26T08:27:17;100525.41;;;9.51;58.33
17311;BME280;8773;43.300;0.394;2022-12-26T08:29:46;100508.94;;;9.37;58.14
17311;BME280;8773;43.300;0.394;2022-12-26T08:32:14;100540.13;;;9.36;57.63
17311;BME280;8773;43.300;0.394;2022-12-26T08:34:42;100514.69;;;9.32;58.54
17311;BME280;8773;43.300;0.394;2022-12-26T08:37:10;100515.13;;;9.47;57.88
17311;BME280;8773;43.300;0.394;2022-12-26T08:39:38;100540.09;;;9.86;58.06
17311;BME280;8773;43.300;0.394;2022-12-26T08:42:07;100541.06;;;10.04;57.73
17311;BME280;8773;43.300;0.394;2022-12-26T08:44:36;100527.44;;;10.17;57.06
17311;BME280;8773;43.300;0.394;2022-12-26T08:47:05;100558.53;;;10.37;57.37
17311;BME280;8773;43.300;0.394;2022-12-26T08:49:33;100571.19;;;10.54;56.83
17311;BME280;8773;43.300;0.394;2022-12-26T08:52:01;100577.81;;;10.50;56.13
17311;BME280;8773;43.300;0.394;2022-12-26T08:54:30;100579.09;;;10.27;56.28
17311;BME280;8773;43.300;0.394;2022-12-26T08:57:01;100571.50;;;10.23;56.73
17311;BME280;8773;43.300;0.394;2022-12-26T08:59:48;100575.00;;;10.42;56.54
17311;BME280;8773;43.300;0.394;2022-12-26T09:02:16;100571.47;;;10.51;57.09
17311;BME280;8773;43.300;0.394;2022-12-26T09:04:45;100577.50;;;10.73;57.09
17311;BME280;8773;43.300;0.394;2022-12-26T09:07:13;100570.41;;;10.91;56.12
17311;BME280;8773;43.300;0.394;2022-12-26T09:09:41;100595.84;;;11.14;55.30
17311;BME280;8773;43.300;0.394;2022-12-26T09:12:09;100588.72;;;11.23;54.66
17311;BME280;8773;43.300;0.394;2022-12-26T09:14:38;100597.41;;;11.07;53.92
17311;BME280;8773;43.300;0.394;2022-12-26T09:17:09;100598.53;;;11.14;54.33
17311;BME280;8773;43.300;0.394;2022-12-26T09:19:37;100597.53;;;11.15;54.44
17311;BME280;8773;43.300;0.394;2022-12-26T09:22:05;100606.25;;;11.17;54.36
17311;BME280;8773;43.300;0.394;2022-12-26T09:24:57;100611.16;;;11.32;53.27
17311;BME280;8773;43.300;0.394;2022-12-26T09:27:27;100619.19;;;11.32;53.30
17311;BME280;8773;43.300;0.394;2022-12-26T09:29:56;100613.69;;;11.23;53.41
17311;BME280;8773;43.300;0.394;2022-12-26T09:32:25;100616.06;;;11.27;53.49
17311;BME280;8773;43.300;0.394;2022-12-26T09:34:53;100626.91;;;11.44;53.37
17311;BME280;8773;43.300;0.394;2022-12-26T09:37:24;100629.59;;;11.44;52.68
17311;BME280;8773;43.300;0.394;2022-12-26T09:39:52;100624.03;;;11.18;53.86
17311;BME280;8773;43.300;0.394;2022-12-26T09:42:33;100632.84;;;11.29;54.42
17311;BME280;8773;43.300;0.394;2022-12-26T09:45:10;100639.31;;;11.45;53.76
17311;BME280;8773;43.300;0.394;2022-12-26T09:47:50;100646.31;;;11.56;53.25
17311;BME280;8773;43.300;0.394;2022-12-26T09:50:25;100635.25;;;11.69;52.96
17311;BME280;8773;43.300;0.394;2022-12-26T09:52:55;100660.50;;;11.94;52.92
17311;BME280;8773;43.300;0.394;2022-12-26T09:55:33;100655.63;;;12.07;52.59
17311;BME280;8773;43.300;0.394;2022-12-26T09:58:09;100665.75;;;12.13;52.62
17311;BME280;8773;43.300;0.394;2022-12-26T10:00:44;100655.47;;;12.08;53.02
17311;BME280;8773;43.300;0.394;2022-12-26T10:03:14;100654.56;;;12.00;53.17
17311;BME280;8773;43.300;0.394;2022-12-26T10:06:00;100649.09;;;11.92;53.25
17311;BME280;8773;43.300;0.394;2022-12-26T10:11:29;100658.22;;;11.99;53.28
17311;BME280;8773;43.300;0.394;2022-12-26T10:14:09;100665.16;;;12.19;53.38
17311;BME280;8773;43.300;0.394;2022-12-26T10:16:52;100668.00;;;12.35;53.10
17311;BME280;8773;43.300;0.394;2022-12-26T10:19:35;100672.41;;;12.54;52.62
17311;BME280;8773;43.300;0.394;2022-12-26T10:22:17;100682.97;;;12.73;52.37
17311;BME280;8773;43.300;0.394;2022-12-26T10:24:50;100697.19;;;12.83;51.84
17311;BME280;8773;43.300;0.394;2022-12-26T10:27:23;100695.72;;;12.89;52.10
17311;BME280;8773;43.300;0.394;2022-12-26T10:29:57;100689.38;;;12.98;51.97
17311;BME280;8773;43.300;0.394;2022-12-26T10:32:31;100689.84;;;13.11;51.67
17311;BME280;8773;43.300;0.394;2022-12-26T10:35:15;100688.91;;;13.20;51.82
17311;BME280;8773;43.300;0.394;2022-12-26T10:37:46;100691.75;;;13.19;51.84
17311;BME280;8773;43.300;0.394;2022-12-26T10:40:21;100693.63;;;13.27;52.52
17311;BME280;8773;43.300;0.394;2022-12-26T10:42:53;100702.06;;;13.32;52.11
17311;BME280;8773;43.300;0.394;2022-12-26T10:45:26;100689.31;;;13.34;51.97
17311;BME280;8773;43.300;0.394;2022-12-26T10:47:57;100687.31;;;13.36;51.88
17311;BME280;8773;43.300;0.394;2022-12-26T10:50:29;100693.72;;;13.43;52.06
17311;BME280;8773;43.300;0.394;2022-12-26T10:52:59;100695.19;;;13.37;51.61
17311;BME280;8773;43.300;0.394;2022-12-26T10:55:33;100700.91;;;13.34;51.23
17311;BME280;8773;43.300;0.394;2022-12-26T10:58:04;100685.28;;;13.38;51.94
17311;BME280;8773;43.300;0.394;2022-12-26T11:00:33;100671.22;;;13.44;51.91
17311;BME280;8773;43.300;0.394;2022-12-26T11:03:04;100692.78;;;13.52;51.64
17311;BME280;8773;43.300;0.394;2022-12-26T11:05:36;100696.19;;;13.54;51.51
17311;BME280;8773;43.300;0.394;2022-12-26T11:08:27;100693.53;;;13.62;51.46
17311;BME280;8773;43.300;0.394;2022-12-26T11:11:02;100700.44;;;13.65;51.69
17311;BME280;8773;43.300;0.394;2022-12-26T11:13:34;100708.09;;;13.77;51.39
17311;BME280;8773;43.300;0.394;2022-12-26T11:16:05;100707.78;;;13.89;50.97
17311;BME280;8773;43.300;0.394;2022-12-26T11:18:37;100706.13;;;13.96;51.22
17311;BME280;8773;43.300;0.394;2022-12-26T11:21:20;100702.84;;;14.10;50.62
17311;BME280;8773;43.300;0.394;2022-12-26T11:23:52;100703.50;;;14.12;51.59
17311;BME280;8773;43.300;0.394;2022-12-26T11:26:40;100689.09;;;14.21;50.91
17311;BME280;8773;43.300;0.394;2022-12-26T11:29:11;100706.72;;;14.15;51.31
17311;BME280;8773;43.300;0.394;2022-12-26T11:31:40;100699.84;;;14.21;51.09
17311;BME280;8773;43.300;0.394;2022-12-26T11:34:15;100703.38;;;14.30;50.23
17311;BME280;8773;43.300;0.394;2022-12-26T11:36:47;100706.44;;;14.43;50.37
17311;BME280;8773;43.300;0.394;2022-12-26T11:39:21;100703.94;;;14.49;49.93
17311;BME280;8773;43.300;0.394;2022-12-26T11:41:54;100705.59;;;14.42;49.39
17311;BME280;8773;43.300;0.394;2022-12-26T11:44:25;100703.09;;;14.49;48.95
17311;BME280;8773;43.300;0.394;2022-12-26T11:46:56;100700.56;;;14.47;48.93
17311;BME280;8773;43.300;0.394;2022-12-26T11:49:29;100701.59;;;14.55;48.86
17311;BME280;8773;43.300;0.394;2022-12-26T11:52:01;100693.88;;;14.68;49.37
17311;BME280;8773;43.300;0.394;2022-12-26T11:54:33;100695.75;;;14.83;49.50
17311;BME280;8773;43.300;0.394;2022-12-26T11:57:11;100699.97;;;14.94;48.85
17311;BME280;8773;43.300;0.394;2022-12-26T11:59:39;100696.28;;;15.03;48.76
17311;BME280;8773;43.300;0.394;2022-12-26T12:02:17;100696.09;;;15.05;49.19
17311;BME280;8773;43.300;0.394;2022-12-26T12:04:47;100692.72;;;14.95;49.11
17311;BME280;8773;43.300;0.394;2022-12-26T12:07:25;100696.44;;;14.94;48.67
17311;BME280;8773;43.300;0.394;2022-12-26T12:10:16;100701.31;;;14.98;48.98
17311;BME280;8773;43.300;0.394;2022-12-26T12:12:54;100684.97;;;14.92;49.82
17311;BME280;8773;43.300;0.394;2022-12-26T12:15:31;100680.94;;;14.71;49.70
17311;BME280;8773;43.300;0.394;2022-12-26T12:18:15;100691.69;;;14.71;49.28
17311;BME280;8773;43.300;0.394;2022-12-26T12:20:58;100688.16;;;14.71;49.54
17311;BME280;8773;43.300;0.394;2022-12-26T12:23:46;100691.38;;;14.74;49.45
17311;BME280;8773;43.300;0.394;2022-12-26T12:26:25;100697.44;;;14.84;50.09
17311;BME280;8773;43.300;0.394;2022-12-26T12:29:15;100698.25;;;15.26;49.56
17311;BME280;8773;43.300;0.394;2022-12-26T12:31:59;100683.56;;;15.44;49.49
17311;BME280;8773;43.300;0.394;2022-12-26T12:34:40;100679.69;;;15.55;49.67
17311;BME280;8773;43.300;0.394;2022-12-26T12:37:21;100686.25;;;15.61;49.25
17311;BME280;8773;43.300;0.394;2022-12-26T12:39:59;100680.47;;;15.72;48.94
17311;BME280;8773;43.300;0.394;2022-12-26T12:42:43;100677.59;;;15.73;49.18
17311;BME280;8773;43.300;0.394;2022-12-26T12:45:21;100691.88;;;15.90;49.46
17311;BME280;8773;43.300;0.394;2022-12-26T12:48:04;100696.53;;;16.04;48.92
17311;BME280;8773;43.300;0.394;2022-12-26T12:50:43;100696.03;;;16.01;48.80
17311;BME280;8773;43.300;0.394;2022-12-26T12:53:40;100689.44;;;16.03;48.74
17311;BME280;8773;43.300;0.394;2022-12-26T12:56:22;100696.19;;;16.07;48.12
17311;BME280;8773;43.300;0.394;2022-12-26T12:59:00;100695.16;;;16.08;48.19
17311;BME280;8773;43.300;0.394;2022-12-26T13:01:34;100705.44;;;16.13;48.16
17311;BME280;8773;43.300;0.394;2022-12-26T13:04:10;100695.81;;;16.10;48.90
17311;BME280;8773;43.300;0.394;2022-12-26T13:06:46;100703.22;;;16.16;49.49
17311;BME280;8773;43.300;0.394;2022-12-26T13:09:19;100698.69;;;16.09;49.00
17311;BME280;8773;43.300;0.394;2022-12-26T13:11:56;100701.75;;;16.06;49.54
17311;BME280;8773;43.300;0.394;2022-12-26T13:14:27;100707.66;;;16.01;49.35
17311;BME280;8773;43.300;0.394;2022-12-26T13:17:03;100699.41;;;16.03;49.65
17311;BME280;8773;43.300;0.394;2022-12-26T13:19:53;100690.94;;;16.06;48.75
17311;BME280;8773;43.300;0.394;2022-12-26T13:22:34;100694.22;;;15.93;49.33
17311;BME280;8773;43.300;0.394;2022-12-26T13:25:19;100701.66;;;15.91;50.02
17311;BME280;8773;43.300;0.394;2022-12-26T13:27:53;100704.88;;;15.87;50.18
17311;BME280;8773;43.300;0.394;2022-12-26T13:30:36;100702.22;;;15.78;50.02
17311;BME280;8773;43.300;0.394;2022-12-26T13:33:05;100703.06;;;15.79;50.18
17311;BME280;8773;43.300;0.394;2022-12-26T13:35:52;100724.09;;;15.92;50.58
17311;BME280;8773;43.300;0.394;2022-12-26T13:38:22;100725.09;;;15.91;50.83
17311;BME280;8773;43.300;0.394;2022-12-26T13:40:55;100707.91;;;15.92;51.28
17311;BME280;8773;43.300;0.394;2022-12-26T13:46:53;100693.34;;;16.01;50.86
17311;BME280;8773;43.300;0.394;2022-12-26T13:49:27;100713.22;;;16.08;50.95
17311;BME280;8773;43.300;0.394;2022-12-26T13:51:57;100700.00;;;15.82;50.67
17311;BME280;8773;43.300;0.394;2022-12-26T13:54:27;100682.69;;;15.68;51.00
17311;BME280;8773;43.300;0.394;2022-12-26T14:00:03;100691.09;;;15.73;51.32
17311;BME280;8773;43.300;0.394;2022-12-26T14:06:15;100698.38;;;15.65;50.59
17311;BME280;8773;43.300;0.394;2022-12-26T14:12:00;100714.75;;;15.47;50.95
17311;BME280;8773;43.300;0.394;2022-12-26T14:14:44;100711.75;;;15.50;51.29